CheckWX is a tool to help pilots better visualize weather data.  It is not intended as a substitute for an official pre-flight weather briefing.

20:28:09 UTC

LHBP METAR
Budapest Ferenc Liszt International Airport
Budapest, Hungary
Current

28 mins ago

LHBP 262000Z 00000KT CAVOK 25/22 Q1021 NOSIG
Observed
Jun-26 @ 20:00 UTC
Visibility
10,000+ meters
Flight Rules
VFR
Cloud Levels
  • Clear skies
Temperature
25°C / 77°F
Dewpoint
22°C / 72°F
Humidity
83%
Altimeter
30.15" Hg
Pressure
1020.92 hPa
Previous

58 mins ago

LHBP 261930Z 00000KT CAVOK 27/22 Q1021 NOSIG
Observed
Jun-26 @ 19:30 UTC
Visibility
10,000+ meters
Flight Rules
VFR
Cloud Levels
  • Clear skies
Temperature
27°C / 81°F
Dewpoint
22°C / 72°F
Heat Index
29°C / 85°F
Humidity
74%
Altimeter
30.15" Hg
Pressure
1020.92 hPa
Previous

1 hour ago

LHBP 261900Z 22004KT 160V240 CAVOK 30/21 Q1021 NOSIG
Observed
Jun-26 @ 19:00 UTC
Wind
  • 220° at 4 KTS
Visibility
10,000+ meters
Flight Rules
VFR
Cloud Levels
  • Clear skies
Temperature
30°C / 86°F
Dewpoint
21°C / 70°F
Heat Index
33°C / 91°F
Humidity
59%
Altimeter
30.15" Hg
Pressure
1020.92 hPa